Time;durP1;ratioP1;P1;durP2;ratioP2;P2;SDS_P1;SDS_P2;PMS_P1;PMS_P2;Temp;Humidity;BMP_temperature;BMP_pressure;BME280_temperature;BME280_humidity;BME280_pressure;Samples;Min_cycle;Max_cycle;Signal;HPM_P1;HPM_P2
2022/08/08 00:01:23;;;;;;;6.57;3.70;;;17.70;99.90;;;;;;5111901;28;20108;-65
2022/08/08 00:04:19;;;;;;;5.60;4.10;;;17.70;99.90;;;;;;5085005;28;20123;-65
2022/08/08 00:06:58;;;;;;;6.53;4.22;;;17.70;99.90;;;;;;5111376;28;20491;-65
2022/08/08 00:09:50;;;;;;;5.03;3.90;;;17.60;99.90;;;;;;5111572;28;20056;-67
2022/08/08 00:12:21;;;;;;;6.72;4.25;;;17.60;99.90;;;;;;5112238;28;20380;-66
2022/08/08 00:15:10;;;;;;;6.40;4.03;;;17.50;99.90;;;;;;5115951;28;20044;-65
2022/08/08 00:17:51;;;;;;;4.32;3.60;;;17.40;99.90;;;;;;5115677;28;20433;-66
2022/08/08 00:20:42;;;;;;;6.20;4.18;;;17.40;99.90;;;;;;5116021;28;20048;-64
2022/08/08 00:23:15;;;;;;;6.03;4.10;;;17.30;99.90;;;;;;5115297;28;20055;-64
2022/08/08 00:25:45;;;;;;;5.72;4.13;;;17.30;99.90;;;;;;5115085;28;20083;-65
2022/08/08 00:28:28;;;;;;;6.53;4.00;;;17.20;99.90;;;;;;5115548;28;20077;-64
2022/08/08 00:31:04;;;;;;;7.18;4.22;;;17.20;99.90;;;;;;5110992;28;20043;-65
2022/08/08 00:36:57;;;;;;;6.20;4.50;;;17.10;99.90;;;;;;5115805;28;20052;-65
2022/08/08 00:39:44;;;;;;;5.30;3.60;;;17.00;99.90;;;;;;5115071;28;20104;-65
2022/08/08 00:42:42;;;;;;;5.90;3.60;;;16.90;99.90;;;;;;5099765;28;20140;-65
2022/08/08 00:45:51;;;;;;;7.65;4.30;;;17.00;99.90;;;;;;5116371;28;20130;-65
2022/08/08 00:48:32;;;;;;;7.38;3.95;;;16.90;99.90;;;;;;5095287;27;20054;-66
2022/08/08 00:50:59;;;;;;;5.57;3.85;;;16.90;99.90;;;;;;5114558;28;20048;-65
2022/08/08 00:53:37;;;;;;;6.07;4.03;;;16.90;99.90;;;;;;5116142;28;20047;-66
2022/08/08 00:56:34;;;;;;;6.07;5.07;;;16.90;99.90;;;;;;5115084;28;20069;-65
2022/08/08 00:59:34;;;;;;;6.75;4.13;;;16.90;99.90;;;;;;5112002;28;20088;-65
2022/08/08 01:02:53;;;;;;;5.47;3.92;;;16.80;99.90;;;;;;5115799;28;20044;-65
2022/08/08 01:06:10;;;;;;;6.47;4.30;;;16.80;99.90;;;;;;5033245;28;20048;-65
2022/08/08 01:08:57;;;;;;;6.18;4.00;;;16.80;99.90;;;;;;5095184;28;20048;-65
2022/08/08 01:11:36;;;;;;;5.90;4.03;;;16.70;99.90;;;;;;5093977;28;20411;-65
2022/08/08 01:14:14;;;;;;;7.93;4.35;;;16.70;99.90;;;;;;5095139;28;20479;-64
2022/08/08 01:16:57;;;;;;;6.50;4.95;;;16.60;99.90;;;;;;5094251;28;20054;-65
2022/08/08 01:19:41;;;;;;;6.82;4.53;;;16.50;99.90;;;;;;5095544;28;20048;-64
2022/08/08 01:23:05;;;;;;;6.65;4.50;;;16.40;99.90;;;;;;5096940;28;20044;-65
2022/08/08 01:26:18;;;;;;;6.63;3.92;;;16.40;99.90;;;;;;5094186;28;20079;-64
2022/08/08 01:29:08;;;;;;;5.35;3.83;;;16.30;99.90;;;;;;5108328;28;20085;-66
2022/08/08 01:31:56;;;;;;;6.68;4.45;;;16.30;99.90;;;;;;5115666;28;20048;-65
2022/08/08 01:35:02;;;;;;;7.10;4.05;;;16.20;99.90;;;;;;5111725;28;20089;-65
2022/08/08 01:37:59;;;;;;;12.18;5.00;;;16.20;99.90;;;;;;5095684;28;20158;-66
2022/08/08 01:40:29;;;;;;;6.82;4.13;;;16.20;99.90;;;;;;5097576;28;20078;-65
2022/08/08 01:43:18;;;;;;;;;;;16.20;99.90;;;;;;5114099;28;20059;-64
2022/08/08 01:45:56;;;;;;;5.13;4.13;;;16.10;99.90;;;;;;5097505;28;19927;-63
2022/08/08 01:48:29;;;;;;;6.65;3.95;;;16.10;99.90;;;;;;5098470;28;20062;-63
2022/08/08 01:51:02;;;;;;;6.82;4.18;;;16.00;99.90;;;;;;5114982;28;20060;-65
2022/08/08 01:54:14;;;;;;;6.22;4.00;;;16.00;99.90;;;;;;5101752;28;20093;-66
2022/08/08 01:57:39;;;;;;;8.07;3.70;;;15.90;99.90;;;;;;5094762;28;20047;-66
2022/08/08 02:00:45;;;;;;;6.45;3.85;;;15.90;99.90;;;;;;5111031;28;20051;-65
2022/08/08 02:03:32;;;;;;;7.10;4.43;;;15.80;99.90;;;;;;5113310;28;20096;-66
2022/08/08 02:06:33;;;;;;;6.53;4.22;;;15.80;99.90;;;;;;5115344;28;20039;-65
2022/08/08 02:09:04;;;;;;;9.65;4.63;;;15.80;99.90;;;;;;5097624;28;20133;-65
2022/08/08 02:11:45;;;;;;;6.32;3.88;;;15.70;99.90;;;;;;5113812;28;20044;-65
2022/08/08 02:14:39;;;;;;;5.90;4.20;;;15.60;99.90;;;;;;5113865;28;20050;-65
2022/08/08 02:17:31;;;;;;;5.95;3.95;;;15.60;99.90;;;;;;5098423;28;20040;-65
2022/08/08 02:20:29;;;;;;;7.85;4.20;;;15.60;99.90;;;;;;5113360;28;20537;-69
2022/08/08 02:23:25;;;;;;;5.03;3.80;;;15.50;99.90;;;;;;5099090;28;20097;-65
2022/08/08 02:26:07;;;;;;;14.15;4.78;;;15.50;99.90;;;;;;5097743;28;20049;-65
2022/08/08 02:28:57;;;;;;;9.20;4.82;;;15.40;99.90;;;;;;5097379;28;20051;-66
2022/08/08 02:31:58;;;;;;;5.13;4.50;;;15.40;99.90;;;;;;5094227;28;20052;-66
2022/08/08 02:34:56;;;;;;;7.68;4.60;;;15.30;99.90;;;;;;5093085;28;20082;-65
2022/08/08 02:37:54;;;;;;;6.57;4.28;;;15.30;99.90;;;;;;5104785;28;20398;-65
2022/08/08 02:40:56;;;;;;;6.68;4.30;;;15.30;99.90;;;;;;5110351;28;20515;-65
2022/08/08 02:43:59;;;;;;;5.97;4.55;;;15.30;99.90;;;;;;5059994;28;20056;-65
2022/08/08 02:47:04;;;;;;;6.80;4.50;;;15.20;99.90;;;;;;5092591;28;20094;-65
2022/08/08 02:50:02;;;;;;;8.13;4.70;;;15.20;99.90;;;;;;5093145;28;20104;-65
2022/08/08 02:52:58;;;;;;;4.95;4.35;;;15.20;99.90;;;;;;5092200;28;20487;-65
2022/08/08 02:56:00;;;;;;;6.88;4.78;;;15.20;99.90;;;;;;5092335;28;20419;-65
2022/08/08 02:58:52;;;;;;;6.22;4.90;;;15.20;99.90;;;;;;5104080;28;20044;-65
2022/08/08 03:01:44;;;;;;;6.90;5.28;;;15.20;99.90;;;;;;5104884;28;20074;-65
2022/08/08 03:04:43;;;;;;;8.60;5.30;;;15.20;99.90;;;;;;5112570;28;20403;-65
2022/08/08 03:08:11;;;;;;;7.10;4.68;;;15.20;99.90;;;;;;5113661;28;20101;-65
2022/08/08 03:11:06;;;;;;;6.75;4.95;;;15.20;99.90;;;;;;5112491;28;20044;-66
2022/08/08 03:13:54;;;;;;;7.63;5.25;;;15.10;99.90;;;;;;5113328;28;20052;-65
2022/08/08 03:16:50;;;;;;;8.30;5.40;;;15.10;99.90;;;;;;5113830;28;20051;-65
2022/08/08 03:19:55;;;;;;;7.05;5.32;;;15.00;99.90;;;;;;5112820;27;20055;-65
2022/08/08 03:22:29;;;;;;;6.32;4.50;;;15.00;99.90;;;;;;5105324;27;20487;-66
2022/08/08 03:25:08;;;;;;;;;;;14.90;99.90;;;;;;5113280;28;20050;-66
2022/08/08 03:27:51;;;;;;;6.93;4.80;;;14.90;99.90;;;;;;5112476;28;20337;-65
2022/08/08 03:30:23;;;;;;;7.30;5.25;;;14.80;99.90;;;;;;5096475;28;20475;-65
2022/08/08 03:35:56;;;;;;;7.38;4.88;;;14.80;99.90;;;;;;5103621;28;20151;-65
2022/08/08 03:38:23;;;;;;;7.78;5.43;;;14.70;99.90;;;;;;5074314;28;20044;-65
2022/08/08 03:41:10;;;;;;;6.80;5.43;;;14.70;99.90;;;;;;5077900;28;20052;-65
2022/08/08 03:43:57;;;;;;;8.23;5.00;;;14.70;99.90;;;;;;5092417;28;20487;-65
2022/08/08 03:46:25;;;;;;;7.40;4.90;;;14.60;99.90;;;;;;5092796;28;20048;-65
2022/08/08 03:49:01;;;;;;;6.18;4.72;;;14.60;99.90;;;;;;5108071;28;20058;-65
2022/08/08 03:51:57;;;;;;;7.60;5.43;;;14.60;99.90;;;;;;5111573;28;20396;-66
2022/08/08 03:54:25;;;;;;;9.07;6.25;;;14.50;99.90;;;;;;5112767;28;20044;-65
2022/08/08 03:57:12;;;;;;;8.13;5.47;;;14.50;99.90;;;;;;5112994;28;20051;-65
2022/08/08 03:59:59;;;;;;;6.85;5.18;;;14.50;99.90;;;;;;5091651;28;20420;-65
2022/08/08 04:02:37;;;;;;;8.45;5.38;;;14.40;99.90;;;;;;5092359;28;20404;-65
2022/08/08 04:05:17;;;;;;;7.03;5.13;;;14.40;99.90;;;;;;5091188;28;20053;-65
2022/08/08 04:07:54;;;;;;;7.55;5.25;;;14.40;99.90;;;;;;5092517;28;20130;-65
2022/08/08 04:10:21;;;;;;;6.18;5.18;;;14.40;99.90;;;;;;5092023;28;20048;-65
2022/08/08 04:12:48;;;;;;;8.25;5.30;;;14.40;99.90;;;;;;5091262;28;20059;-66
2022/08/08 04:15:15;;;;;;;9.38;4.90;;;14.30;99.90;;;;;;5074712;28;20085;-65
2022/08/08 04:17:42;;;;;;;7.85;4.75;;;14.30;99.90;;;;;;5098516;28;20052;-65
2022/08/08 04:20:24;;;;;;;6.63;4.80;;;14.30;99.90;;;;;;5112614;28;20047;-65
2022/08/08 04:22:55;;;;;;;9.07;5.65;;;14.20;99.90;;;;;;5111533;28;20137;-65
2022/08/08 04:25:22;;;;;;;6.97;5.57;;;14.20;99.90;;;;;;5094493;28;20128;-66
2022/08/08 04:27:58;;;;;;;5.45;4.57;;;14.20;99.90;;;;;;5112329;28;20083;-65
2022/08/08 04:30:46;;;;;;;8.38;4.88;;;14.20;99.90;;;;;;5096404;28;20148;-65
2022/08/08 04:33:13;;;;;;;6.85;5.13;;;14.20;99.90;;;;;;5100567;28;20047;-65
2022/08/08 04:35:41;;;;;;;7.40;5.10;;;14.20;99.90;;;;;;5111003;28;20081;-65
2022/08/08 04:38:17;;;;;;;7.70;4.95;;;14.20;99.90;;;;;;5102259;28;20071;-65
2022/08/08 04:40:48;;;;;;;10.48;5.30;;;14.20;99.90;;;;;;5074434;28;20060;-68
2022/08/08 04:43:21;;;;;;;7.25;5.22;;;14.20;99.90;;;;;;5091302;28;20112;-65
2022/08/08 04:45:58;;;;;;;8.75;4.88;;;14.20;99.90;;;;;;5076107;28;20439;-65
2022/08/08 04:48:25;;;;;;;6.57;4.80;;;14.20;99.90;;;;;;5069612;28;20048;-65
2022/08/08 04:50:52;;;;;;;7.57;5.55;;;14.10;99.90;;;;;;5093779;28;20491;-65
2022/08/08 04:53:19;;;;;;;7.57;5.00;;;14.20;99.90;;;;;;5112345;28;20109;-65
2022/08/08 04:56:06;;;;;;;6.57;5.03;;;14.20;99.90;;;;;;5110692;28;20040;-64
2022/08/08 04:58:33;;;;;;;7.57;5.65;;;14.20;99.90;;;;;;5111859;28;20047;-69
2022/08/08 05:01:00;;;;;;;6.63;5.10;;;14.20;99.90;;;;;;5114616;28;20056;-65
2022/08/08 05:03:34;;;;;;;9.73;5.55;;;14.30;99.90;;;;;;5114785;28;20130;-69
2022/08/08 05:06:21;;;;;;;7.68;4.90;;;14.20;99.90;;;;;;5114983;28;20054;-65
2022/08/08 05:08:51;;;;;;;5.63;4.82;;;14.30;99.90;;;;;;5115016;28;20402;-65
2022/08/08 05:11:19;;;;;;;10.65;5.13;;;14.30;99.90;;;;;;5114454;28;20139;-65
2022/08/08 05:13:49;;;;;;;7.57;4.70;;;14.40;99.90;;;;;;5114723;28;20052;-65
2022/08/08 05:16:30;;;;;;;10.02;5.78;;;14.50;99.90;;;;;;5114805;28;20047;-71
2022/08/08 05:19:17;;;;;;;8.70;5.75;;;14.90;99.90;;;;;;5114730;28;20109;-65
2022/08/08 05:22:05;;;;;;;6.18;4.28;;;15.40;99.90;;;;;;5115913;28;20044;-62
2022/08/08 05:24:32;;;;;;;7.07;4.65;;;15.90;99.90;;;;;;5115546;28;20138;-62
2022/08/08 05:26:59;;;;;;;5.07;4.20;;;16.30;99.90;;;;;;5097676;28;20134;-65
2022/08/08 05:29:26;;;;;;;7.43;4.57;;;16.70;99.90;;;;;;5109772;28;20051;-62
2022/08/08 05:31:55;;;;;;;8.32;4.75;;;17.10;99.90;;;;;;5077309;28;20040;-63
2022/08/08 05:34:39;;;;;;;6.35;4.55;;;17.40;99.90;;;;;;5093782;28;20040;-63
2022/08/08 05:37:06;;;;;;;4.95;4.05;;;17.70;99.90;;;;;;5077673;28;20048;-63
2022/08/08 05:39:54;;;;;;;7.80;4.10;;;18.10;99.90;;;;;;5094680;28;20076;-65
2022/08/08 05:42:23;;;;;;;7.28;4.03;;;18.50;99.90;;;;;;5094001;28;20052;-63
2022/08/08 05:44:51;;;;;;;6.30;4.22;;;18.70;99.90;;;;;;5077124;28;20381;-64
2022/08/08 05:47:20;;;;;;;7.80;4.60;;;19.10;99.90;;;;;;5063496;28;20056;-63
2022/08/08 05:49:47;;;;;;;;;;;19.30;99.90;;;;;;5113750;28;20495;-63
2022/08/08 05:52:22;;;;;;;6.85;4.43;;;19.50;99.90;;;;;;5114982;28;20002;-63
2022/08/08 05:55:05;;;;;;;7.50;4.80;;;19.50;99.90;;;;;;5113442;28;20048;-63
2022/08/08 05:57:36;;;;;;;8.90;4.97;;;19.40;99.90;;;;;;5114042;28;20127;-63
2022/08/08 06:00:23;;;;;;;5.55;4.50;;;19.10;99.90;;;;;;5115103;28;20043;-64
2022/08/08 06:03:12;;;;;;;8.57;4.97;;;18.90;99.90;;;;;;5096608;28;20437;-64
2022/08/08 06:05:54;;;;;;;6.50;4.18;;;18.80;99.90;;;;;;5101971;28;20441;-63
2022/08/08 06:08:29;;;;;;;6.13;5.18;;;18.60;99.90;;;;;;5114920;28;20043;-64
2022/08/08 06:11:01;;;;;;;6.88;5.03;;;18.50;99.90;;;;;;5098033;28;20051;-62
2022/08/08 06:13:28;;;;;;;9.18;5.35;;;18.40;99.90;;;;;;5113597;28;20043;-63
2022/08/08 06:16:01;;;;;;;8.13;5.38;;;18.40;99.90;;;;;;5097916;28;20112;-63
2022/08/08 06:18:28;;;;;;;7.40;4.47;;;18.20;99.90;;;;;;5112973;28;20040;-63
2022/08/08 06:20:57;;;;;;;6.47;4.60;;;18.20;99.90;;;;;;5114713;28;20383;-63
2022/08/08 06:23:25;;;;;;;8.68;5.10;;;18.20;99.90;;;;;;5113033;28;20054;-63
2022/08/08 06:26:12;;;;;;;8.40;5.10;;;18.20;99.90;;;;;;5113205;28;20043;-63
2022/08/08 06:29:08;;;;;;;8.57;5.15;;;18.20;99.90;;;;;;5097763;28;20051;-63
2022/08/08 06:31:59;;;;;;;11.68;5.85;;;18.30;99.90;;;;;;5092641;28;20536;-63
2022/08/08 06:34:45;;;;;;;9.60;5.47;;;18.40;99.90;;;;;;5063747;28;20062;-63
2022/08/08 06:37:32;;;;;;;8.93;6.13;;;18.50;99.90;;;;;;5093735;28;20048;-63
2022/08/08 06:40:05;;;;;;;9.85;5.60;;;18.50;99.90;;;;;;5071096;28;20048;-63
2022/08/08 06:42:36;;;;;;;12.60;6.38;;;18.50;99.90;;;;;;5075945;28;20052;-63
2022/08/08 06:45:04;;;;;;;8.35;5.57;;;18.60;99.90;;;;;;5096419;28;20130;-63
2022/08/08 06:47:32;;;;;;;8.75;6.05;;;18.70;99.90;;;;;;5097035;28;20085;-63
2022/08/08 06:50:19;;;;;;;9.02;5.90;;;18.70;99.90;;;;;;5112682;28;20487;-64
2022/08/08 06:53:02;;;;;;;12.43;7.15;;;18.60;99.90;;;;;;5114208;28;20051;-63
2022/08/08 06:55:40;;;;;;;7.30;4.85;;;18.70;99.90;;;;;;5112561;28;20062;-63
2022/08/08 06:58:07;;;;;;;10.13;6.10;;;18.80;99.90;;;;;;5112250;28;20048;-64
2022/08/08 07:00:36;;;;;;;10.65;6.22;;;18.90;99.90;;;;;;5112285;28;20047;-63
2022/08/08 07:03:08;;;;;;;6.95;5.35;;;19.00;99.90;;;;;;5112371;28;20368;-65
2022/08/08 07:05:55;;;;;;;;;;;19.10;99.90;;;;;;5112951;28;20048;-64
2022/08/08 07:08:33;;;;;;;8.60;5.15;;;19.10;99.90;;;;;;5112478;28;19919;-63
2022/08/08 07:11:01;;;;;;;9.68;5.30;;;19.20;99.90;;;;;;5096070;28;20348;-64
2022/08/08 07:13:42;;;;;;;9.02;5.07;;;19.20;99.90;;;;;;5095668;28;20051;-63
2022/08/08 07:16:41;;;;;;;11.02;5.80;;;19.30;99.90;;;;;;5099768;28;20445;-65
2022/08/08 07:19:28;;;;;;;7.53;4.40;;;19.30;99.90;;;;;;5113141;28;20044;-63
2022/08/08 07:22:01;;;;;;;7.30;4.72;;;19.40;99.90;;;;;;5111576;28;20131;-63
2022/08/08 07:24:49;;;;;;;6.47;4.60;;;19.40;99.90;;;;;;5111822;28;20054;-63
2022/08/08 07:27:23;;;;;;;11.07;4.75;;;19.40;99.90;;;;;;5111904;28;20047;-64
2022/08/08 07:30:11;;;;;;;9.00;4.68;;;19.40;99.90;;;;;;5101647;28;20407;-64
2022/08/08 07:32:47;;;;;;;9.23;5.30;;;19.50;99.90;;;;;;5091678;28;20044;-64
2022/08/08 07:35:14;;;;;;;6.18;4.38;;;19.60;99.90;;;;;;5092948;28;20052;-63
2022/08/08 07:37:43;;;;;;;8.68;5.53;;;19.70;99.90;;;;;;5092522;28;20177;-63
2022/08/08 07:40:31;;;;;;;8.65;4.95;;;19.80;99.90;;;;;;5077178;28;20044;-63
2022/08/08 07:43:00;;;;;;;;;;;19.90;99.90;;;;;;5075656;28;20074;-63
2022/08/08 07:45:27;;;;;;;8.05;5.13;;;19.90;99.90;;;;;;5092747;28;20022;-64
2022/08/08 07:48:14;;;;;;;9.23;4.85;;;20.00;99.90;;;;;;5103321;28;20055;-64
2022/08/08 07:50:42;;;;;;;9.77;4.78;;;20.00;99.90;;;;;;5111557;28;20052;-64
2022/08/08 07:53:36;;;;;;;7.15;3.90;;;20.10;99.90;;;;;;5111780;28;20746;-63
2022/08/08 07:56:23;;;;;;;12.10;4.95;;;20.20;99.90;;;;;;5097400;28;20071;-63
2022/08/08 07:59:04;;;;;;;7.78;4.63;;;20.20;99.90;;;;;;5112814;28;20051;-63
2022/08/08 08:01:34;;;;;;;7.47;4.10;;;20.30;99.90;;;;;;5111445;28;20047;-63
2022/08/08 08:04:24;;;;;;;7.10;3.83;;;20.40;99.90;;;;;;5111394;28;20039;-63
2022/08/08 08:06:52;;;;;;;9.77;3.92;;;20.60;99.90;;;;;;5111314;28;20048;-64
2022/08/08 08:09:23;;;;;;;13.00;4.07;;;20.70;99.90;;;;;;5094675;28;20058;-63
2022/08/08 08:11:52;;;;;;;6.97;3.75;;;20.70;99.90;;;;;;5095014;28;20052;-64
2022/08/08 08:14:49;;;;;;;7.93;3.30;;;20.70;99.90;;;;;;5111352;28;20047;-63
2022/08/08 08:17:17;;;;;;;7.82;3.58;;;20.80;99.90;;;;;;5097136;28;20043;-63
2022/08/08 08:19:47;;;;;;;10.23;3.85;;;20.70;99.90;;;;;;5111170;28;20044;-64
2022/08/08 08:22:21;;;;;;;5.95;3.97;;;20.70;99.90;;;;;;5112372;28;20079;-63
2022/08/08 08:24:57;;;;;;;9.45;3.58;;;20.80;99.90;;;;;;5112358;28;20104;-64
2022/08/08 08:27:33;;;;;;;8.23;3.80;;;21.00;99.90;;;;;;5111286;28;20628;-64
2022/08/08 08:30:00;;;;;;;4.43;3.28;;;21.10;99.90;;;;;;5101296;28;20044;-63
2022/08/08 08:32:27;;;;;;;6.95;3.65;;;21.10;99.90;;;;;;5091690;28;20497;-63
2022/08/08 08:35:03;;;;;;;9.85;3.20;;;21.10;99.90;;;;;;5093172;28;20120;-63
2022/08/08 08:37:32;;;;;;;10.57;3.90;;;21.10;99.90;;;;;;5095168;28;20044;-63
2022/08/08 08:40:18;;;;;;;7.97;3.50;;;21.20;99.90;;;;;;5080476;28;20094;-63
2022/08/08 08:42:48;;;;;;;6.80;3.05;;;21.30;99.90;;;;;;5094847;28;20048;-65
2022/08/08 08:45:16;;;;;;;5.63;3.30;;;21.40;99.90;;;;;;5097005;28;20049;-63
2022/08/08 08:47:52;;;;;;;7.50;3.20;;;21.40;99.90;;;;;;5114793;28;20487;-63
2022/08/08 08:50:25;;;;;;;5.88;4.22;;;21.40;99.90;;;;;;5114227;28;20142;-64
2022/08/08 08:53:09;;;;;;;8.70;3.33;;;21.40;99.90;;;;;;5115263;28;20044;-64
2022/08/08 08:55:56;;;;;;;6.85;3.10;;;21.50;99.90;;;;;;5115323;28;20054;-64
2022/08/08 08:58:44;;;;;;;6.22;2.92;;;21.50;99.90;;;;;;5115356;28;20047;-64
2022/08/08 09:01:36;;;;;;;9.30;3.55;;;21.60;99.90;;;;;;5098917;28;20483;-64
2022/08/08 09:04:14;;;;;;;7.45;3.72;;;21.70;99.90;;;;;;5115864;28;20043;-64
2022/08/08 09:07:01;;;;;;;8.90;3.95;;;21.70;99.90;;;;;;5101553;28;20126;-64
2022/08/08 09:09:37;;;;;;;13.57;3.85;;;21.70;99.90;;;;;;5115927;28;20044;-63
2022/08/08 09:12:13;;;;;;;7.60;3.53;;;21.80;99.90;;;;;;5099176;28;20051;-65
2022/08/08 09:14:40;;;;;;;6.32;3.40;;;21.90;99.90;;;;;;5115721;28;20054;-63
2022/08/08 09:17:09;;;;;;;16.13;3.03;;;22.00;99.90;;;;;;5114514;28;20101;-64
2022/08/08 09:19:43;;;;;;;5.13;3.20;;;22.00;99.90;;;;;;5114243;28;20051;-64
2022/08/08 09:22:30;;;;;;;6.80;4.28;;;22.10;99.90;;;;;;5115101;28;20128;-64
2022/08/08 09:24:57;;;;;;;6.72;3.10;;;22.30;99.90;;;;;;5097446;28;20494;-64
2022/08/08 09:27:24;;;;;;;9.07;4.07;;;22.30;99.90;;;;;;5114093;28;20044;-63
2022/08/08 09:30:13;;;;;;;4.65;3.50;;;22.30;99.90;;;;;;5103720;28;20052;-64
2022/08/08 09:32:55;;;;;;;4.95;2.70;;;22.40;99.90;;;;;;5094838;28;20063;-67
2022/08/08 09:35:44;;;;;;;7.85;3.00;;;22.50;99.90;;;;;;5066110;28;20495;-63
2022/08/08 09:38:41;;;;;;;8.27;3.13;;;22.50;99.90;;;;;;5095050;28;20044;-63
2022/08/08 09:41:39;;;;;;;3.75;2.50;;;22.50;99.90;;;;;;5094339;28;20054;-64
2022/08/08 09:44:35;;;;;;;5.47;2.72;;;22.70;99.90;;;;;;5079808;28;20538;-64
2022/08/08 09:47:05;;;;;;;6.05;3.00;;;22.70;99.90;;;;;;5094447;28;20139;-63
2022/08/08 09:49:54;;;;;;;8.57;2.85;;;22.70;99.90;;;;;;5094128;28;20499;-63
2022/08/08 09:52:30;;;;;;;4.95;2.97;;;22.70;99.90;;;;;;5093530;28;20119;-64
2022/08/08 09:55:17;;;;;;;6.85;2.70;;;22.70;99.90;;;;;;5093869;28;20052;-64
2022/08/08 09:58:06;;;;;;;4.63;2.55;;;22.80;99.90;;;;;;5080969;28;20040;-69
2022/08/08 10:00:36;;;;;;;8.98;2.90;;;22.90;99.90;;;;;;5076518;28;20131;-64
2022/08/08 10:03:22;;;;;;;4.53;2.60;;;23.00;99.10;;;;;;5093231;28;20087;-64
2022/08/08 10:05:49;;;;;;;5.38;2.95;;;22.90;98.70;;;;;;5076686;28;20052;-64
2022/08/08 10:08:16;;;;;;;3.63;2.17;;;22.90;98.70;;;;;;5093394;28;20059;-64
2022/08/08 10:10:45;;;;;;;5.97;3.03;;;22.90;97.40;;;;;;5092760;28;20498;-63
2022/08/08 10:13:21;;;;;;;4.70;2.15;;;23.00;97.30;;;;;;5093083;28;20044;-63
2022/08/08 10:15:59;;;;;;;7.82;2.38;;;23.00;97.10;;;;;;5094185;28;20047;-64
2022/08/08 10:18:34;;;;;;;6.05;3.03;;;23.10;96.90;;;;;;5105513;28;20096;-64
2022/08/08 10:21:04;;;;;;;5.43;2.55;;;23.20;96.70;;;;;;5096720;28;20066;-64
2022/08/08 10:23:51;;;;;;;6.30;2.63;;;23.30;95.70;;;;;;5114623;28;20047;-68
2022/08/08 10:26:26;;;;;;;4.90;2.25;;;23.30;94.70;;;;;;5114144;28;20088;-67
2022/08/08 10:29:13;;;;;;;10.98;2.78;;;23.40;94.70;;;;;;5110820;28;20067;-64
2022/08/08 10:34:35;;;;;;;5.35;2.67;;;23.30;94.80;;;;;;5078836;28;20349;-63
2022/08/08 10:37:03;;;;;;;4.28;2.47;;;23.40;94.60;;;;;;5076288;28;20399;-66
2022/08/08 10:39:31;;;;;;;4.83;2.47;;;23.50;94.00;;;;;;5093675;28;20135;-64
2022/08/08 10:42:18;;;;;;;12.00;3.28;;;23.50;94.00;;;;;;5078462;28;20051;-64
2022/08/08 10:44:46;;;;;;;4.20;2.50;;;23.50;94.30;;;;;;5092220;28;20052;-63
2022/08/08 10:47:17;;;;;;;6.65;2.88;;;23.60;94.40;;;;;;5095156;28;20067;-64
2022/08/08 10:50:06;;;;;;;8.15;3.05;;;23.60;93.80;;;;;;5111884;28;20052;-64
2022/08/08 10:52:35;;;;;;;6.00;2.60;;;23.70;93.40;;;;;;5096321;28;20445;-64
2022/08/08 10:55:04;;;;;;;5.97;2.97;;;23.70;93.90;;;;;;5095308;28;20477;-63
2022/08/08 10:57:45;;;;;;;4.88;2.60;;;23.80;94.00;;;;;;5111614;28;20043;-64
2022/08/08 11:00:25;;;;;;;6.13;2.40;;;24.00;94.50;;;;;;5113868;28;20055;-64
2022/08/08 11:02:53;;;;;;;4.95;3.08;;;24.10;94.70;;;;;;5096008;28;20055;-64
2022/08/08 11:05:20;;;;;;;6.07;2.38;;;24.20;94.70;;;;;;5095403;28;20047;-64
2022/08/08 11:07:53;;;;;;;6.65;3.33;;;24.30;94.20;;;;;;5095729;28;20086;-63
2022/08/08 11:10:40;;;;;;;5.13;2.95;;;24.30;94.20;;;;;;5112684;28;20051;-63
2022/08/08 11:13:07;;;;;;;8.65;2.58;;;24.50;94.00;;;;;;5111892;28;20138;-64
2022/08/08 11:15:54;;;;;;;6.32;3.10;;;24.70;93.50;;;;;;5098102;28;20078;-64
2022/08/08 11:18:29;;;;;;;4.53;2.30;;;24.80;93.50;;;;;;5080038;28;20134;-64
2022/08/08 11:20:56;;;;;;;5.10;2.55;;;25.00;92.80;;;;;;5111744;28;20047;-63
2022/08/08 11:23:24;;;;;;;8.25;2.63;;;25.10;92.30;;;;;;5111799;28;20441;-68
2022/08/08 11:26:02;;;;;;;5.65;2.22;;;25.10;92.10;;;;;;5111762;28;20051;-63
2022/08/08 11:28:29;;;;;;;3.70;2.25;;;25.00;92.50;;;;;;5095371;28;20050;-65
2022/08/08 11:30:58;;;;;;;3.97;2.17;;;25.00;92.10;;;;;;5094356;28;20051;-64
2022/08/08 11:33:26;;;;;;;8.43;3.13;;;25.00;92.50;;;;;;5074712;28;20048;-64
2022/08/08 11:36:13;;;;;;;4.70;2.10;;;25.10;92.60;;;;;;5078161;28;20039;-64
2022/08/08 11:38:41;;;;;;;3.65;2.35;;;25.20;92.50;;;;;;5094346;28;20039;-64
2022/08/08 11:41:22;;;;;;;8.73;2.30;;;25.30;92.20;;;;;;5091094;28;20044;-64
2022/08/08 11:43:50;;;;;;;;;;;25.30;92.00;;;;;;5092138;28;20043;-64
2022/08/08 11:46:20;;;;;;;6.03;2.40;;;25.20;91.40;;;;;;5091173;28;20615;-64
2022/08/08 11:48:50;;;;;;;7.07;2.20;;;25.00;91.60;;;;;;5090896;28;20043;-64
2022/08/08 11:51:17;;;;;;;5.43;2.67;;;25.00;92.00;;;;;;5111237;28;20108;-66
2022/08/08 11:54:05;;;;;;;5.63;2.25;;;25.20;92.10;;;;;;5098191;28;20052;-64
2022/08/08 11:56:52;;;;;;;4.28;2.28;;;25.50;92.00;;;;;;5111605;28;20446;-64
2022/08/08 11:59:31;;;;;;;3.88;2.53;;;25.70;91.40;;;;;;5111280;28;20043;-64
2022/08/08 12:02:18;;;;;;;5.63;2.13;;;25.90;90.40;;;;;;5111827;28;20100;-65
2022/08/08 12:05:08;;;;;;;7.15;2.47;;;25.80;90.60;;;;;;5096205;28;20052;-63
2022/08/08 12:07:46;;;;;;;4.88;2.10;;;25.80;90.10;;;;;;5112462;28;20475;-64
2022/08/08 12:10:18;;;;;;;4.10;1.65;;;25.60;90.20;;;;;;5112429;28;20138;-64
2022/08/08 12:12:46;;;;;;;4.25;1.67;;;25.60;90.60;;;;;;5112947;28;20048;-64
2022/08/08 12:15:29;;;;;;;6.22;2.20;;;25.70;90.00;;;;;;5094570;28;20057;-64
2022/08/08 12:18:16;;;;;;;4.32;1.77;;;25.70;89.00;;;;;;5112761;28;20040;-64
2022/08/08 12:20:47;;;;;;;2.43;1.47;;;25.90;89.00;;;;;;5094571;28;20043;-64
2022/08/08 12:23:15;;;;;;;3.25;1.30;;;25.80;90.00;;;;;;5111557;28;20279;-64
2022/08/08 12:26:08;;;;;;;2.97;1.30;;;26.00;87.30;;;;;;5112178;28;20492;-64
2022/08/08 12:28:35;;;;;;;5.80;1.70;;;26.10;85.60;;;;;;5111116;28;20494;-64
2022/08/08 12:31:07;;;;;;;;;;;26.10;84.80;;;;;;5093079;28;20461;-65
2022/08/08 12:33:38;;;;;;;2.70;1.02;;;26.20;83.90;;;;;;5092415;28;20331;-64
2022/08/08 12:36:25;;;;;;;4.07;1.45;;;26.10;83.70;;;;;;5078129;28;20450;-64
2022/08/08 12:39:00;;;;;;;2.55;1.45;;;26.20;85.60;;;;;;5091282;28;20051;-64
2022/08/08 12:41:34;;;;;;;3.08;1.60;;;26.40;84.40;;;;;;5091634;28;20040;-65
2022/08/08 12:44:26;;;;;;;2.47;1.45;;;26.40;83.70;;;;;;5077400;28;20045;-64
2022/08/08 12:46:58;;;;;;;3.60;1.48;;;26.40;83.70;;;;;;5085558;28;20135;-64
2022/08/08 12:49:28;;;;;;;5.70;1.88;;;26.50;84.40;;;;;;5110697;28;20050;-64
2022/08/08 12:52:23;;;;;;;3.10;1.60;;;26.60;84.20;;;;;;5111604;28;20139;-64
2022/08/08 12:55:06;;;;;;;2.53;1.42;;;26.80;83.20;;;;;;5112465;28;20051;-64
2022/08/08 12:57:40;;;;;;;6.22;1.98;;;27.00;81.00;;;;;;5110574;28;20042;-64
2022/08/08 13:00:28;;;;;;;2.30;1.40;;;26.80;80.20;;;;;;5091083;28;20377;-64
2022/08/08 13:03:05;;;;;;;3.83;1.55;;;26.50;79.80;;;;;;5091747;28;20048;-64
2022/08/08 13:05:33;;;;;;;2.58;1.35;;;26.60;80.80;;;;;;5058274;28;20056;-65
2022/08/08 13:08:20;;;;;;;3.70;1.38;;;26.80;81.00;;;;;;5095348;28;20044;-65
2022/08/08 13:10:58;;;;;;;3.75;1.70;;;26.90;79.80;;;;;;5060253;28;20543;-63
2022/08/08 13:13:32;;;;;;;2.13;1.30;;;26.90;79.50;;;;;;5109005;28;20530;-64
2022/08/08 13:16:19;;;;;;;2.35;1.23;;;27.00;78.70;;;;;;5111084;28;20155;-68
2022/08/08 13:18:46;;;;;;;3.20;1.30;;;27.10;78.00;;;;;;5090371;28;20048;-64
2022/08/08 13:21:31;;;;;;;2.80;1.30;;;27.10;78.10;;;;;;5093393;28;20050;-64
2022/08/08 13:24:17;;;;;;;3.55;1.85;;;27.10;77.00;;;;;;5102233;28;20084;-64
2022/08/08 13:27:09;;;;;;;2.42;1.40;;;27.00;76.90;;;;;;5114799;28;20109;-64
2022/08/08 13:29:47;;;;;;;3.97;1.58;;;27.10;76.20;;;;;;5106313;28;20055;-64
2022/08/08 13:32:16;;;;;;;3.40;1.70;;;27.30;75.60;;;;;;5114649;28;20380;-64
2022/08/08 13:34:50;;;;;;;3.63;1.67;;;27.40;76.20;;;;;;5097929;28;20056;-64
2022/08/08 13:37:18;;;;;;;2.55;1.45;;;27.40;77.50;;;;;;5115306;27;20054;-64
2022/08/08 13:40:06;;;;;;;6.15;1.65;;;27.60;75.80;;;;;;5114032;28;20073;-66
2022/08/08 13:42:33;;;;;;;3.30;1.63;;;27.60;74.90;;;;;;5115382;28;20134;-64
2022/08/08 13:45:00;;;;;;;2.13;1.63;;;27.50;75.80;;;;;;5113812;28;20040;-64
2022/08/08 13:47:30;;;;;;;3.63;1.30;;;27.30;75.20;;;;;;5115386;28;20043;-64
2022/08/08 13:50:07;;;;;;;7.90;1.55;;;27.10;75.50;;;;;;5113663;28;20051;-64
2022/08/08 13:52:54;;;;;;;3.47;1.38;;;27.00;75.30;;;;;;5114075;28;20126;-64
2022/08/08 13:55:21;;;;;;;2.47;1.48;;;27.10;75.10;;;;;;5113623;28;20058;-64
2022/08/08 13:57:55;;;;;;;3.90;1.58;;;27.10;75.20;;;;;;5114054;28;20039;-64
2022/08/08 14:00:40;;;;;;;5.18;1.65;;;27.20;74.50;;;;;;5108827;28;20050;-64
2022/08/08 14:03:11;;;;;;;3.45;1.95;;;27.30;73.70;;;;;;5093408;28;20407;-64